sensor_id;sensor_type;location;lat;lon;timestamp;temperature;humidity
67868;SHT31;54672;46.096;14.470;2023-04-03T00:01:00;8.93;77.43
67868;SHT31;54672;46.096;14.470;2023-04-03T00:03:25;8.88;76.59
67868;SHT31;54672;46.096;14.470;2023-04-03T00:05:51;8.93;77.04
67868;SHT31;54672;46.096;14.470;2023-04-03T00:08:17;8.91;76.89
67868;SHT31;54672;46.096;14.470;2023-04-03T00:10:42;8.90;76.89
67868;SHT31;54672;46.096;14.470;2023-04-03T00:13:08;8.87;77.04
67868;SHT31;54672;46.096;14.470;2023-04-03T00:15:35;8.87;77.37
67868;SHT31;54672;46.096;14.470;2023-04-03T00:18:01;8.84;76.91
67868;SHT31;54672;46.096;14.470;2023-04-03T00:20:27;8.81;77.28
67868;SHT31;54672;46.096;14.470;2023-04-03T00:22:53;8.81;76.63
67868;SHT31;54672;46.096;14.470;2023-04-03T00:25:18;8.80;77.10
67868;SHT31;54672;46.096;14.470;2023-04-03T00:27:44;8.81;77.56
67868;SHT31;54672;46.096;14.470;2023-04-03T00:30:13;8.84;76.95
67868;SHT31;54672;46.096;14.470;2023-04-03T00:32:39;8.83;76.87
67868;SHT31;54672;46.096;14.470;2023-04-03T00:35:05;8.79;76.82
67868;SHT31;54672;46.096;14.470;2023-04-03T00:37:30;8.76;76.23
67868;SHT31;54672;46.096;14.470;2023-04-03T00:39:56;8.73;76.55
67868;SHT31;54672;46.096;14.470;2023-04-03T00:42:21;8.67;77.22
67868;SHT31;54672;46.096;14.470;2023-04-03T00:47:16;8.55;75.71
67868;SHT31;54672;46.096;14.470;2023-04-03T00:49:43;8.49;76.02
67868;SHT31;54672;46.096;14.470;2023-04-03T00:52:16;8.42;75.69
67868;SHT31;54672;46.096;14.470;2023-04-03T00:54:42;8.32;75.66
67868;SHT31;54672;46.096;14.470;2023-04-03T00:57:10;8.28;76.05
67868;SHT31;54672;46.096;14.470;2023-04-03T00:59:40;8.22;75.83
67868;SHT31;54672;46.096;14.470;2023-04-03T01:02:09;8.16;74.71
67868;SHT31;54672;46.096;14.470;2023-04-03T01:04:42;8.11;75.04
67868;SHT31;54672;46.096;14.470;2023-04-03T01:07:15;8.07;74.97
67868;SHT31;54672;46.096;14.470;2023-04-03T01:09:42;8.04;75.38
67868;SHT31;54672;46.096;14.470;2023-04-03T01:14:44;7.98;75.60
67868;SHT31;54672;46.096;14.470;2023-04-03T01:25:16;7.76;75.78
67868;SHT31;54672;46.096;14.470;2023-04-03T01:27:41;7.70;75.81
67868;SHT31;54672;46.096;14.470;2023-04-03T01:30:07;7.64;75.55
67868;SHT31;54672;46.096;14.470;2023-04-03T01:32:33;7.60;75.74
67868;SHT31;54672;46.096;14.470;2023-04-03T01:34:58;7.54;75.40
67868;SHT31;54672;46.096;14.470;2023-04-03T01:37:24;7.54;75.46
67868;SHT31;54672;46.096;14.470;2023-04-03T01:39:49;7.50;74.48
67868;SHT31;54672;46.096;14.470;2023-04-03T01:42:14;7.46;74.85
67868;SHT31;54672;46.096;14.470;2023-04-03T01:44:41;7.45;74.74
67868;SHT31;54672;46.096;14.470;2023-04-03T01:47:06;7.40;74.93
67868;SHT31;54672;46.096;14.470;2023-04-03T01:49:32;7.33;75.41
67868;SHT31;54672;46.096;14.470;2023-04-03T01:51:58;7.33;74.42
67868;SHT31;54672;46.096;14.470;2023-04-03T01:54:23;7.29;74.59
67868;SHT31;54672;46.096;14.470;2023-04-03T01:56:48;7.23;74.79
67868;SHT31;54672;46.096;14.470;2023-04-03T01:59:14;7.23;74.42
67868;SHT31;54672;46.096;14.470;2023-04-03T02:01:42;7.22;74.09
67868;SHT31;54672;46.096;14.470;2023-04-03T02:04:08;7.20;74.26
67868;SHT31;54672;46.096;14.470;2023-04-03T02:06:34;7.16;74.46
67868;SHT31;54672;46.096;14.470;2023-04-03T02:09:00;7.19;74.60
67868;SHT31;54672;46.096;14.470;2023-04-03T02:11:25;7.16;74.05
67868;SHT31;54672;46.096;14.470;2023-04-03T02:13:51;7.05;74.22
67868;SHT31;54672;46.096;14.470;2023-04-03T02:16:16;7.01;74.37
67868;SHT31;54672;46.096;14.470;2023-04-03T02:18:41;6.95;74.81
67868;SHT31;54672;46.096;14.470;2023-04-03T02:21:07;6.91;74.55
67868;SHT31;54672;46.096;14.470;2023-04-03T02:23:33;6.84;74.82
67868;SHT31;54672;46.096;14.470;2023-04-03T02:26:16;6.80;74.95
67868;SHT31;54672;46.096;14.470;2023-04-03T02:28:42;6.78;75.04
67868;SHT31;54672;46.096;14.470;2023-04-03T02:31:08;6.81;74.83
67868;SHT31;54672;46.096;14.470;2023-04-03T02:33:35;6.78;75.25
67868;SHT31;54672;46.096;14.470;2023-04-03T02:36:05;6.74;75.24
67868;SHT31;54672;46.096;14.470;2023-04-03T02:38:31;6.67;75.00
67868;SHT31;54672;46.096;14.470;2023-04-03T02:41:05;6.71;75.62
67868;SHT31;54672;46.096;14.470;2023-04-03T02:43:31;6.68;74.29
67868;SHT31;54672;46.096;14.470;2023-04-03T02:45:57;6.70;73.74
67868;SHT31;54672;46.096;14.470;2023-04-03T02:48:23;6.68;73.49
67868;SHT31;54672;46.096;14.470;2023-04-03T02:50:48;6.70;72.71
67868;SHT31;54672;46.096;14.470;2023-04-03T02:53:14;6.65;73.21
67868;SHT31;54672;46.096;14.470;2023-04-03T02:55:40;6.55;73.14
67868;SHT31;54672;46.096;14.470;2023-04-03T02:58:06;6.55;73.25
67868;SHT31;54672;46.096;14.470;2023-04-03T03:00:31;6.41;73.47
67868;SHT31;54672;46.096;14.470;2023-04-03T03:02:57;6.40;73.27
67868;SHT31;54672;46.096;14.470;2023-04-03T03:05:22;6.29;73.88
67868;SHT31;54672;46.096;14.470;2023-04-03T03:07:48;6.19;74.01
67868;SHT31;54672;46.096;14.470;2023-04-03T03:10:13;6.13;73.83
67868;SHT31;54672;46.096;14.470;2023-04-03T03:12:39;6.09;73.81
67868;SHT31;54672;46.096;14.470;2023-04-03T03:15:06;6.05;73.69
67868;SHT31;54672;46.096;14.470;2023-04-03T03:17:32;6.02;74.43
67868;SHT31;54672;46.096;14.470;2023-04-03T03:19:57;5.85;75.25
67868;SHT31;54672;46.096;14.470;2023-04-03T03:22:22;5.78;75.53
67868;SHT31;54672;46.096;14.470;2023-04-03T03:24:48;5.65;75.41
67868;SHT31;54672;46.096;14.470;2023-04-03T03:27:13;5.56;75.85
67868;SHT31;54672;46.096;14.470;2023-04-03T03:29:41;5.45;75.90
67868;SHT31;54672;46.096;14.470;2023-04-03T03:32:07;5.37;75.89
67868;SHT31;54672;46.096;14.470;2023-04-03T03:34:32;5.31;76.24
67868;SHT31;54672;46.096;14.470;2023-04-03T03:36:58;5.24;76.38
67868;SHT31;54672;46.096;14.470;2023-04-03T03:39:23;5.16;76.52
67868;SHT31;54672;46.096;14.470;2023-04-03T03:41:48;5.12;76.45
67868;SHT31;54672;46.096;14.470;2023-04-03T03:44:15;5.01;76.45
67868;SHT31;54672;46.096;14.470;2023-04-03T03:46:40;4.97;76.39
67868;SHT31;54672;46.096;14.470;2023-04-03T03:49:06;4.93;76.72
67868;SHT31;54672;46.096;14.470;2023-04-03T03:51:31;4.86;76.58
67868;SHT31;54672;46.096;14.470;2023-04-03T03:53:56;4.84;76.62
67868;SHT31;54672;46.096;14.470;2023-04-03T03:56:22;4.82;76.69
67868;SHT31;54672;46.096;14.470;2023-04-03T03:58:47;4.72;76.66
67868;SHT31;54672;46.096;14.470;2023-04-03T04:01:14;4.65;76.83
67868;SHT31;54672;46.096;14.470;2023-04-03T04:03:40;4.62;76.78
67868;SHT31;54672;46.096;14.470;2023-04-03T04:06:06;4.56;76.99
67868;SHT31;54672;46.096;14.470;2023-04-03T04:08:31;4.53;77.31
67868;SHT31;54672;46.096;14.470;2023-04-03T04:10:57;4.51;77.31
67868;SHT31;54672;46.096;14.470;2023-04-03T04:13:23;4.48;77.51
67868;SHT31;54672;46.096;14.470;2023-04-03T04:15:48;4.46;77.49
67868;SHT31;54672;46.096;14.470;2023-04-03T04:18:14;4.41;77.54
67868;SHT31;54672;46.096;14.470;2023-04-03T04:20:39;4.38;77.57
67868;SHT31;54672;46.096;14.470;2023-04-03T04:23:05;4.37;77.94
67868;SHT31;54672;46.096;14.470;2023-04-03T04:25:30;4.37;77.73
67868;SHT31;54672;46.096;14.470;2023-04-03T04:27:56;4.30;77.72
67868;SHT31;54672;46.096;14.470;2023-04-03T04:30:21;4.25;77.92
67868;SHT31;54672;46.096;14.470;2023-04-03T04:32:47;4.22;77.95
67868;SHT31;54672;46.096;14.470;2023-04-03T04:35:12;4.24;77.64
67868;SHT31;54672;46.096;14.470;2023-04-03T04:37:38;4.27;77.39
67868;SHT31;54672;46.096;14.470;2023-04-03T04:40:03;4.28;77.45
67868;SHT31;54672;46.096;14.470;2023-04-03T04:42:29;4.31;77.58
67868;SHT31;54672;46.096;14.470;2023-04-03T04:44:54;4.40;77.39
67868;SHT31;54672;46.096;14.470;2023-04-03T04:47:20;4.42;77.39
67868;SHT31;54672;46.096;14.470;2023-04-03T04:49:46;4.83;76.04
67868;SHT31;54672;46.096;14.470;2023-04-03T04:52:12;5.55;72.92
67868;SHT31;54672;46.096;14.470;2023-04-03T04:54:38;6.33;70.72
67868;SHT31;54672;46.096;14.470;2023-04-03T04:57:03;6.87;68.09
67868;SHT31;54672;46.096;14.470;2023-04-03T04:59:29;7.09;67.26
67868;SHT31;54672;46.096;14.470;2023-04-03T05:01:54;7.69;65.87
67868;SHT31;54672;46.096;14.470;2023-04-03T05:04:20;8.28;63.82
67868;SHT31;54672;46.096;14.470;2023-04-03T05:06:45;8.93;61.56
67868;SHT31;54672;46.096;14.470;2023-04-03T05:09:11;8.84;61.22
67868;SHT31;54672;46.096;14.470;2023-04-03T05:11:37;9.13;60.28
67868;SHT31;54672;46.096;14.470;2023-04-03T05:14:02;9.44;59.55
67868;SHT31;54672;46.096;14.470;2023-04-03T05:16:30;9.46;59.27
67868;SHT31;54672;46.096;14.470;2023-04-03T05:18:56;9.46;58.44
67868;SHT31;54672;46.096;14.470;2023-04-03T05:21:21;10.02;57.17
67868;SHT31;54672;46.096;14.470;2023-04-03T05:23:48;10.32;56.04
67868;SHT31;54672;46.096;14.470;2023-04-03T05:26:13;10.44;55.22
67868;SHT31;54672;46.096;14.470;2023-04-03T05:28:39;10.37;54.49
67868;SHT31;54672;46.096;14.470;2023-04-03T05:31:04;10.44;55.55
67868;SHT31;54672;46.096;14.470;2023-04-03T05:33:30;10.68;54.32
67868;SHT31;54672;46.096;14.470;2023-04-03T05:35:55;10.78;53.67
67868;SHT31;54672;46.096;14.470;2023-04-03T05:38:21;10.77;53.14
67868;SHT31;54672;46.096;14.470;2023-04-03T05:40:46;10.34;54.12
67868;SHT31;54672;46.096;14.470;2023-04-03T05:43:12;10.86;52.51
67868;SHT31;54672;46.096;14.470;2023-04-03T05:45:38;11.16;51.41
67868;SHT31;54672;46.096;14.470;2023-04-03T05:48:03;11.56;50.53
67868;SHT31;54672;46.096;14.470;2023-04-03T05:50:29;12.11;49.29
67868;SHT31;54672;46.096;14.470;2023-04-03T05:52:56;12.05;49.54
67868;SHT31;54672;46.096;14.470;2023-04-03T05:55:23;12.60;48.31
67868;SHT31;54672;46.096;14.470;2023-04-03T05:57:48;12.14;47.90
67868;SHT31;54672;46.096;14.470;2023-04-03T06:00:15;11.98;48.83
67868;SHT31;54672;46.096;14.470;2023-04-03T06:02:41;13.18;46.36
67868;SHT31;54672;46.096;14.470;2023-04-03T06:05:08;12.55;46.85
67868;SHT31;54672;46.096;14.470;2023-04-03T06:07:34;12.32;47.41
67868;SHT31;54672;46.096;14.470;2023-04-03T06:10:01;12.90;46.43
67868;SHT31;54672;46.096;14.470;2023-04-03T06:12:27;12.67;46.10
67868;SHT31;54672;46.096;14.470;2023-04-03T06:14:54;12.50;47.29
67868;SHT31;54672;46.096;14.470;2023-04-03T06:17:20;12.73;46.17
67868;SHT31;54672;46.096;14.470;2023-04-03T06:19:46;12.48;46.51
67868;SHT31;54672;46.096;14.470;2023-04-03T06:22:11;13.33;44.74
67868;SHT31;54672;46.096;14.470;2023-04-03T06:24:38;13.14;45.04
67868;SHT31;54672;46.096;14.470;2023-04-03T06:27:03;12.83;45.59
67868;SHT31;54672;46.096;14.470;2023-04-03T06:29:30;13.38;44.34
67868;SHT31;54672;46.096;14.470;2023-04-03T06:31:56;14.12;43.80
67868;SHT31;54672;46.096;14.470;2023-04-03T06:34:21;13.98;43.23
67868;SHT31;54672;46.096;14.470;2023-04-03T06:36:47;14.37;42.40
67868;SHT31;54672;46.096;14.470;2023-04-03T06:39:16;15.12;41.63
67868;SHT31;54672;46.096;14.470;2023-04-03T06:41:42;16.40;39.05
67868;SHT31;54672;46.096;14.470;2023-04-03T06:44:08;14.75;41.19
67868;SHT31;54672;46.096;14.470;2023-04-03T06:46:37;14.33;41.32
67868;SHT31;54672;46.096;14.470;2023-04-03T06:49:03;12.25;44.79
67868;SHT31;54672;46.096;14.470;2023-04-03T06:51:29;13.13;44.85
67868;SHT31;54672;46.096;14.470;2023-04-03T06:53:57;12.32;45.02
67868;SHT31;54672;46.096;14.470;2023-04-03T06:56:23;11.16;45.87
67868;SHT31;54672;46.096;14.470;2023-04-03T06:58:49;11.84;47.05
67868;SHT31;54672;46.096;14.470;2023-04-03T07:01:16;12.10;44.65
67868;SHT31;54672;46.096;14.470;2023-04-03T07:03:44;12.49;43.81
67868;SHT31;54672;46.096;14.470;2023-04-03T07:06:12;12.63;43.91
67868;SHT31;54672;46.096;14.470;2023-04-03T07:08:38;12.69;43.69
67868;SHT31;54672;46.096;14.470;2023-04-03T07:11:04;12.56;42.97
67868;SHT31;54672;46.096;14.470;2023-04-03T07:13:30;12.04;44.45
67868;SHT31;54672;46.096;14.470;2023-04-03T07:15:55;11.50;45.73
67868;SHT31;54672;46.096;14.470;2023-04-03T07:18:21;11.85;44.49
67868;SHT31;54672;46.096;14.470;2023-04-03T07:20:47;11.26;44.68
67868;SHT31;54672;46.096;14.470;2023-04-03T07:23:13;11.39;46.59
67868;SHT31;54672;46.096;14.470;2023-04-03T07:25:49;12.01;45.00
67868;SHT31;54672;46.096;14.470;2023-04-03T07:28:17;12.01;43.82
67868;SHT31;54672;46.096;14.470;2023-04-03T07:30:54;12.24;44.03
67868;SHT31;54672;46.096;14.470;2023-04-03T07:33:22;11.60;44.12
67868;SHT31;54672;46.096;14.470;2023-04-03T07:35:48;11.63;44.34
67868;SHT31;54672;46.096;14.470;2023-04-03T07:38:14;11.22;44.42
67868;SHT31;54672;46.096;14.470;2023-04-03T07:40:45;12.01;43.72
67868;SHT31;54672;46.096;14.470;2023-04-03T07:43:11;12.14;44.24
67868;SHT31;54672;46.096;14.470;2023-04-03T07:45:37;11.47;44.79
67868;SHT31;54672;46.096;14.470;2023-04-03T07:48:03;11.67;43.62
67868;SHT31;54672;46.096;14.470;2023-04-03T07:50:29;12.01;43.34
67868;SHT31;54672;46.096;14.470;2023-04-03T07:52:56;12.77;43.38
67868;SHT31;54672;46.096;14.470;2023-04-03T07:55:23;12.01;42.65
67868;SHT31;54672;46.096;14.470;2023-04-03T07:57:48;12.53;42.05
67868;SHT31;54672;46.096;14.470;2023-04-03T08:00:14;12.29;42.69
67868;SHT31;54672;46.096;14.470;2023-04-03T08:02:40;11.69;43.44
67868;SHT31;54672;46.096;14.470;2023-04-03T08:05:05;11.90;42.80
67868;SHT31;54672;46.096;14.470;2023-04-03T08:07:31;11.63;43.11
67868;SHT31;54672;46.096;14.470;2023-04-03T08:09:56;11.40;43.42
67868;SHT31;54672;46.096;14.470;2023-04-03T08:12:22;11.97;43.91
67868;SHT31;54672;46.096;14.470;2023-04-03T08:14:47;11.08;43.91
67868;SHT31;54672;46.096;14.470;2023-04-03T08:17:13;11.32;44.95
67868;SHT31;54672;46.096;14.470;2023-04-03T08:19:39;11.15;44.27
67868;SHT31;54672;46.096;14.470;2023-04-03T08:22:05;11.23;45.24
67868;SHT31;54672;46.096;14.470;2023-04-03T08:24:34;11.02;45.31
67868;SHT31;54672;46.096;14.470;2023-04-03T08:27:00;10.50;44.67
67868;SHT31;54672;46.096;14.470;2023-04-03T08:29:26;10.58;45.62
67868;SHT31;54672;46.096;14.470;2023-04-03T08:31:52;10.81;44.70
67868;SHT31;54672;46.096;14.470;2023-04-03T08:34:18;11.01;44.70
67868;SHT31;54672;46.096;14.470;2023-04-03T08:36:43;11.14;44.19
67868;SHT31;54672;46.096;14.470;2023-04-03T08:39:09;11.64;44.03
67868;SHT31;54672;46.096;14.470;2023-04-03T08:41:43;11.52;43.96
67868;SHT31;54672;46.096;14.470;2023-04-03T08:47:33;12.96;41.27
67868;SHT31;54672;46.096;14.470;2023-04-03T08:50:07;12.66;40.90
67868;SHT31;54672;46.096;14.470;2023-04-03T08:52:38;12.14;40.30
67868;SHT31;54672;46.096;14.470;2023-04-03T08:55:36;11.90;42.04
67868;SHT31;54672;46.096;14.470;2023-04-03T08:58:05;12.56;40.70
67868;SHT31;54672;46.096;14.470;2023-04-03T09:01:55;12.45;40.83
67868;SHT31;54672;46.096;14.470;2023-04-03T09:03:50;12.24;43.04
67868;SHT31;54672;46.096;14.470;2023-04-03T09:06:21;11.23;43.03
67868;SHT31;54672;46.096;14.470;2023-04-03T09:11:36;10.02;44.82
67868;SHT31;54672;46.096;14.470;2023-04-03T09:14:13;9.90;43.86
67868;SHT31;54672;46.096;14.470;2023-04-03T09:22:11;9.99;45.58
67868;SHT31;54672;46.096;14.470;2023-04-03T09:24:36;9.96;44.80
67868;SHT31;54672;46.096;14.470;2023-04-03T09:27:08;9.96;45.45
67868;SHT31;54672;46.096;14.470;2023-04-03T09:29:39;9.87;44.87
67868;SHT31;54672;46.096;14.470;2023-04-03T09:32:30;9.92;44.50
67868;SHT31;54672;46.096;14.470;2023-04-03T09:34:59;10.02;44.31
67868;SHT31;54672;46.096;14.470;2023-04-03T09:37:41;10.12;44.74
67868;SHT31;54672;46.096;14.470;2023-04-03T09:42:57;10.16;43.62
67868;SHT31;54672;46.096;14.470;2023-04-03T09:45:29;10.50;45.28
67868;SHT31;54672;46.096;14.470;2023-04-03T09:48:24;10.34;43.47
67868;SHT31;54672;46.096;14.470;2023-04-03T09:55:57;10.36;45.01
67868;SHT31;54672;46.096;14.470;2023-04-03T09:58:36;10.65;44.23
67868;SHT31;54672;46.096;14.470;2023-04-03T10:01:03;10.46;43.69
67868;SHT31;54672;46.096;14.470;2023-04-03T10:03:33;10.00;43.42
67868;SHT31;54672;46.096;14.470;2023-04-03T10:06:01;10.21;43.63
67868;SHT31;54672;46.096;14.470;2023-04-03T10:08:33;10.17;43.54
67868;SHT31;54672;46.096;14.470;2023-04-03T10:13:56;10.67;44.62
67868;SHT31;54672;46.096;14.470;2023-04-03T10:16:28;10.65;43.56
67868;SHT31;54672;46.096;14.470;2023-04-03T10:21:50;10.48;41.57
67868;SHT31;54672;46.096;14.470;2023-04-03T10:24:25;10.65;41.98
67868;SHT31;54672;46.096;14.470;2023-04-03T10:27:02;10.92;43.16
67868;SHT31;54672;46.096;14.470;2023-04-03T10:34:57;10.20;41.45
67868;SHT31;54672;46.096;14.470;2023-04-03T10:37:30;10.71;43.18
67868;SHT31;54672;46.096;14.470;2023-04-03T10:43:09;10.98;43.76
67868;SHT31;54672;46.096;14.470;2023-04-03T10:54:39;10.82;41.89
67868;SHT31;54672;46.096;14.470;2023-04-03T10:57:10;10.85;42.52
67868;SHT31;54672;46.096;14.470;2023-04-03T10:59:44;10.74;42.69
67868;SHT31;54672;46.096;14.470;2023-04-03T11:04:44;10.79;42.32
67868;SHT31;54672;46.096;14.470;2023-04-03T11:07:16;10.78;42.89
67868;SHT31;54672;46.096;14.470;2023-04-03T11:09:46;10.84;42.13
67868;SHT31;54672;46.096;14.470;2023-04-03T11:12:40;10.72;41.44
67868;SHT31;54672;46.096;14.470;2023-04-03T11:15:12;10.78;43.65
67868;SHT31;54672;46.096;14.470;2023-04-03T11:17:46;10.77;42.24
67868;SHT31;54672;46.096;14.470;2023-04-03T11:20:21;10.50;42.60
67868;SHT31;54672;46.096;14.470;2023-04-03T11:22:58;10.60;42.48
67868;SHT31;54672;46.096;14.470;2023-04-03T11:25:25;10.81;42.01
67868;SHT31;54672;46.096;14.470;2023-04-03T11:28:14;11.02;44.16
67868;SHT31;54672;46.096;14.470;2023-04-03T11:36:08;10.69;41.56
67868;SHT31;54672;46.096;14.470;2023-04-03T11:38:38;11.18;42.18
67868;SHT31;54672;46.096;14.470;2023-04-03T11:41:08;10.86;41.34
67868;SHT31;54672;46.096;14.470;2023-04-03T11:43:40;10.94;41.74
67868;SHT31;54672;46.096;14.470;2023-04-03T11:46:07;10.92;41.17
67868;SHT31;54672;46.096;14.470;2023-04-03T11:51:47;10.82;42.52
67868;SHT31;54672;46.096;14.470;2023-04-03T11:53:48;11.14;42.34
67868;SHT31;54672;46.096;14.470;2023-04-03T12:01:55;10.67;41.70
67868;SHT31;54672;46.096;14.470;2023-04-03T12:04:26;10.94;42.89
67868;SHT31;54672;46.096;14.470;2023-04-03T12:07:21;10.74;43.76
67868;SHT31;54672;46.096;14.470;2023-04-03T12:12:37;11.26;42.08
67868;SHT31;54672;46.096;14.470;2023-04-03T12:17:44;11.04;42.54
67868;SHT31;54672;46.096;14.470;2023-04-03T12:23:25;10.68;42.26
67868;SHT31;54672;46.096;14.470;2023-04-03T12:25:51;10.78;42.25
67868;SHT31;54672;46.096;14.470;2023-04-03T12:28:24;10.72;42.93
67868;SHT31;54672;46.096;14.470;2023-04-03T12:30:50;10.86;43.17
67868;SHT31;54672;46.096;14.470;2023-04-03T12:36:14;10.68;41.95
67868;SHT31;54672;46.096;14.470;2023-04-03T12:38:53;10.86;43.78
67868;SHT31;54672;46.096;14.470;2023-04-03T12:41:32;11.27;42.54
67868;SHT31;54672;46.096;14.470;2023-04-03T12:44:05;11.16;43.24
67868;SHT31;54672;46.096;14.470;2023-04-03T12:46:41;10.85;42.34
67868;SHT31;54672;46.096;14.470;2023-04-03T12:51:52;11.02;42.32
67868;SHT31;54672;46.096;14.470;2023-04-03T12:54:35;10.95;41.66
67868;SHT31;54672;46.096;14.470;2023-04-03T12:59:43;10.91;41.06
67868;SHT31;54672;46.096;14.470;2023-04-03T13:02:22;10.81;41.08
67868;SHT31;54672;46.096;14.470;2023-04-03T13:04:49;10.84;40.94
67868;SHT31;54672;46.096;14.470;2023-04-03T13:07:21;10.78;41.31
67868;SHT31;54672;46.096;14.470;2023-04-03T13:10:13;10.79;42.12
67868;SHT31;54672;46.096;14.470;2023-04-03T13:12:54;11.08;42.09
67868;SHT31;54672;46.096;14.470;2023-04-03T13:15:23;10.82;40.89
67868;SHT31;54672;46.096;14.470;2023-04-03T13:17:50;10.72;41.79
67868;SHT31;54672;46.096;14.470;2023-04-03T13:20:30;10.94;42.00
67868;SHT31;54672;46.096;14.470;2023-04-03T13:23:05;11.02;41.70
67868;SHT31;54672;46.096;14.470;2023-04-03T13:25:35;10.72;42.68
67868;SHT31;54672;46.096;14.470;2023-04-03T13:28:04;10.72;42.01
67868;SHT31;54672;46.096;14.470;2023-04-03T13:30:33;10.74;41.04
67868;SHT31;54672;46.096;14.470;2023-04-03T13:33:05;10.55;40.90
67868;SHT31;54672;46.096;14.470;2023-04-03T13:35:37;10.75;41.42
67868;SHT31;54672;46.096;14.470;2023-04-03T13:38:23;10.71;41.20
67868;SHT31;54672;46.096;14.470;2023-04-03T13:40:58;10.77;42.60
67868;SHT31;54672;46.096;14.470;2023-04-03T13:43:28;10.74;40.25
67868;SHT31;54672;46.096;14.470;2023-04-03T13:48:20;10.71;41.56
67868;SHT31;54672;46.096;14.470;2023-04-03T13:53:22;10.32;39.92
67868;SHT31;54672;46.096;14.470;2023-04-03T13:58:29;10.67;40.57
67868;SHT31;54672;46.096;14.470;2023-04-03T14:03:33;10.77;41.74
67868;SHT31;54672;46.096;14.470;2023-04-03T14:06:00;10.67;40.93
67868;SHT31;54672;46.096;14.470;2023-04-03T14:08:26;10.69;40.13
67868;SHT31;54672;46.096;14.470;2023-04-03T14:10:52;10.75;41.13
67868;SHT31;54672;46.096;14.470;2023-04-03T14:13:19;10.77;41.39
67868;SHT31;54672;46.096;14.470;2023-04-03T14:15:46;10.77;40.95
67868;SHT31;54672;46.096;14.470;2023-04-03T14:18:15;10.72;40.74
67868;SHT31;54672;46.096;14.470;2023-04-03T14:20:42;10.63;39.90
67868;SHT31;54672;46.096;14.470;2023-04-03T14:23:07;10.64;40.68
67868;SHT31;54672;46.096;14.470;2023-04-03T14:25:33;10.64;40.76
67868;SHT31;54672;46.096;14.470;2023-04-03T14:28:00;10.72;40.31
67868;SHT31;54672;46.096;14.470;2023-04-03T14:30:30;10.79;39.91
67868;SHT31;54672;46.096;14.470;2023-04-03T14:32:57;10.65;40.58
67868;SHT31;54672;46.096;14.470;2023-04-03T14:35:23;10.55;41.05
67868;SHT31;54672;46.096;14.470;2023-04-03T14:37:50;10.48;40.56
67868;SHT31;54672;46.096;14.470;2023-04-03T14:40:21;10.72;40.93
67868;SHT31;54672;46.096;14.470;2023-04-03T14:42:47;10.72;40.71
67868;SHT31;54672;46.096;14.470;2023-04-03T14:45:14;10.69;41.55
67868;SHT31;54672;46.096;14.470;2023-04-03T14:47:49;10.72;40.22
67868;SHT31;54672;46.096;14.470;2023-04-03T14:50:18;10.64;40.25
67868;SHT31;54672;46.096;14.470;2023-04-03T14:52:44;10.69;40.71
67868;SHT31;54672;46.096;14.470;2023-04-03T14:55:12;10.55;40.26
67868;SHT31;54672;46.096;14.470;2023-04-03T14:57:38;10.41;41.17
67868;SHT31;54672;46.096;14.470;2023-04-03T15:00:06;10.40;40.45
67868;SHT31;54672;46.096;14.470;2023-04-03T15:02:37;10.29;41.49
67868;SHT31;54672;46.096;14.470;2023-04-03T15:05:08;10.29;41.97
67868;SHT31;54672;46.096;14.470;2023-04-03T15:07:57;10.29;40.80
67868;SHT31;54672;46.096;14.470;2023-04-03T15:10:24;10.30;41.81
67868;SHT31;54672;46.096;14.470;2023-04-03T15:12:51;10.26;41.60
67868;SHT31;54672;46.096;14.470;2023-04-03T15:15:18;10.13;42.00
67868;SHT31;54672;46.096;14.470;2023-04-03T15:17:56;10.14;41.56
67868;SHT31;54672;46.096;14.470;2023-04-03T15:20:26;10.10;42.20
67868;SHT31;54672;46.096;14.470;2023-04-03T15:22:53;10.09;41.46
67868;SHT31;54672;46.096;14.470;2023-04-03T15:25:21;9.97;41.51
67868;SHT31;54672;46.096;14.470;2023-04-03T15:27:46;9.97;41.98
67868;SHT31;54672;46.096;14.470;2023-04-03T15:30:17;9.92;41.68
67868;SHT31;54672;46.096;14.470;2023-04-03T15:32:43;9.85;42.22
67868;SHT31;54672;46.096;14.470;2023-04-03T15:35:08;9.74;41.96
67868;SHT31;54672;46.096;14.470;2023-04-03T15:37:34;9.65;41.98
67868;SHT31;54672;46.096;14.470;2023-04-03T15:39:59;9.65;42.21
67868;SHT31;54672;46.096;14.470;2023-04-03T15:42:25;9.61;42.10
67868;SHT31;54672;46.096;14.470;2023-04-03T15:44:50;9.51;42.69
67868;SHT31;54672;46.096;14.470;2023-04-03T15:47:16;9.54;42.50
67868;SHT31;54672;46.096;14.470;2023-04-03T15:49:42;9.61;42.95
67868;SHT31;54672;46.096;14.470;2023-04-03T15:52:07;9.56;42.88
67868;SHT31;54672;46.096;14.470;2023-04-03T15:54:33;9.54;42.79
67868;SHT31;54672;46.096;14.470;2023-04-03T15:56:58;9.48;42.39
67868;SHT31;54672;46.096;14.470;2023-04-03T15:59:24;9.46;42.23
67868;SHT31;54672;46.096;14.470;2023-04-03T16:01:50;9.39;42.83
67868;SHT31;54672;46.096;14.470;2023-04-03T16:04:16;9.41;42.63
67868;SHT31;54672;46.096;14.470;2023-04-03T16:06:42;9.37;42.50
67868;SHT31;54672;46.096;14.470;2023-04-03T16:09:08;9.34;42.98
67868;SHT31;54672;46.096;14.470;2023-04-03T16:11:34;9.41;43.57
67868;SHT31;54672;46.096;14.470;2023-04-03T16:14:01;9.28;41.92
67868;SHT31;54672;46.096;14.470;2023-04-03T16:16:27;9.24;43.17
67868;SHT31;54672;46.096;14.470;2023-04-03T16:18:54;9.20;42.92
67868;SHT31;54672;46.096;14.470;2023-04-03T16:21:20;9.14;42.89
67868;SHT31;54672;46.096;14.470;2023-04-03T16:23:46;9.13;43.52
67868;SHT31;54672;46.096;14.470;2023-04-03T16:26:12;9.01;42.44
67868;SHT31;54672;46.096;14.470;2023-04-03T16:28:38;8.99;42.31
67868;SHT31;54672;46.096;14.470;2023-04-03T16:31:05;8.96;43.27
67868;SHT31;54672;46.096;14.470;2023-04-03T16:33:32;8.84;42.42
67868;SHT31;54672;46.096;14.470;2023-04-03T16:35:58;8.77;42.50
67868;SHT31;54672;46.096;14.470;2023-04-03T16:38:24;8.75;42.46
67868;SHT31;54672;46.096;14.470;2023-04-03T16:40:49;8.63;43.86
67868;SHT31;54672;46.096;14.470;2023-04-03T16:43:15;8.55;43.60
67868;SHT31;54672;46.096;14.470;2023-04-03T16:45:41;8.49;44.25
67868;SHT31;54672;46.096;14.470;2023-04-03T16:48:07;8.46;44.04
67868;SHT31;54672;46.096;14.470;2023-04-03T16:50:33;8.36;44.33
67868;SHT31;54672;46.096;14.470;2023-04-03T16:52:58;8.26;44.28
67868;SHT31;54672;46.096;14.470;2023-04-03T16:55:24;8.20;45.34
67868;SHT31;54672;46.096;14.470;2023-04-03T16:57:49;8.11;44.56
67868;SHT31;54672;46.096;14.470;2023-04-03T17:00:15;8.05;44.78
67868;SHT31;54672;46.096;14.470;2023-04-03T17:02:41;8.07;44.19
67868;SHT31;54672;46.096;14.470;2023-04-03T17:05:07;8.01;44.55
67868;SHT31;54672;46.096;14.470;2023-04-03T17:07:33;7.90;45.35